Time;durP1;ratioP1;P1;durP2;ratioP2;P2;SDS_P1;SDS_P2;PMS_P1;PMS_P2;Temp;Humidity;BMP_temperature;BMP_pressure;BME280_temperature;BME280_humidity;BME280_pressure;Samples;Min_cycle;Max_cycle;Signal;HPM_P1;HPM_P2
2022/07/25 00:01:10;;;;;;;7.38;3.42;;;;;;;;;;5026002;28;20025;-75
2022/07/25 00:03:36;;;;;;;9.18;4.07;;;;;;;;;;5020425;28;20919;-74
2022/07/25 00:06:02;;;;;;;7.93;4.03;;;;;;;;;;5025302;28;20025;-75
2022/07/25 00:08:28;;;;;;;7.38;3.80;;;;;;;;;;5026005;28;20065;-75
2022/07/25 00:10:54;;;;;;;8.05;3.28;;;;;;;;;;5025540;28;20422;-75
2022/07/25 00:13:20;;;;;;;9.88;4.18;;;;;;;;;;5015658;28;20080;-77
2022/07/25 00:15:46;;;;;;;9.73;3.50;;;;;;;;;;5025139;28;20041;-75
2022/07/25 00:18:12;;;;;;;6.30;3.20;;;;;;;;;;5022234;28;20109;-74
2022/07/25 00:20:38;;;;;;;6.10;3.30;;;;;;;;;;5023665;28;20021;-74
2022/07/25 00:23:04;;;;;;;10.30;3.83;;;;;;;;;;5021873;28;20029;-75
2022/07/25 00:25:31;;;;;;;9.20;3.83;;;;;;;;;;5023236;28;20068;-75
2022/07/25 00:27:58;;;;;;;6.63;3.80;;;;;;;;;;5026035;28;20029;-75
2022/07/25 00:30:24;;;;;;;8.20;4.35;;;;;;;;;;5028259;28;20128;-75
2022/07/25 00:32:51;;;;;;;5.63;3.35;;;;;;;;;;5026549;28;20025;-75
2022/07/25 00:35:17;;;;;;;7.30;3.42;;;;;;;;;;5027561;28;20056;-74
2022/07/25 00:37:43;;;;;;;9.25;3.53;;;;;;;;;;5027402;28;20098;-75
2022/07/25 00:40:09;;;;;;;11.05;3.88;;;;;;;;;;5029427;28;20590;-75
2022/07/25 00:42:35;;;;;;;9.35;3.50;;;;;;;;;;5028998;28;20021;-75
2022/07/25 00:45:02;;;;;;;7.65;3.47;;;;;;;;;;5021607;28;20032;-74
2022/07/25 00:47:29;;;;;;;6.47;3.55;;;;;;;;;;5026301;28;20330;-75
2022/07/25 00:49:55;;;;;;;8.77;3.85;;;;;;;;;;5023853;28;20498;-76
2022/07/25 00:52:22;;;;;;;7.32;3.45;;;;;;;;;;5020858;28;20025;-75
2022/07/25 00:54:48;;;;;;;5.82;3.60;;;;;;;;;;5025888;28;20029;-74
2022/07/25 00:57:14;;;;;;;7.80;3.33;;;;;;;;;;5026448;28;20033;-75
2022/07/25 00:59:40;;;;;;;7.05;3.83;;;;;;;;;;5028011;28;20186;-75
2022/07/25 01:02:07;;;;;;;6.80;3.35;;;;;;;;;;5030930;28;20026;-74
2022/07/25 01:04:33;;;;;;;6.57;3.75;;;;;;;;;;5029289;28;20024;-74
2022/07/25 01:07:00;;;;;;;7.65;3.88;;;;;;;;;;5022712;28;20087;-75
2022/07/25 01:09:26;;;;;;;6.63;3.33;;;;;;;;;;5029976;28;20022;-76
2022/07/25 01:11:52;;;;;;;6.60;2.97;;;;;;;;;;5033441;28;20021;-75
2022/07/25 01:14:18;;;;;;;8.65;3.58;;;;;;;;;;5027790;28;20100;-74
2022/07/25 01:16:44;;;;;;;9.38;3.83;;;;;;;;;;5023652;28;20025;-75
2022/07/25 01:19:10;;;;;;;6.03;3.08;;;;;;;;;;5027661;28;20029;-74
2022/07/25 01:21:38;;;;;;;6.28;3.30;;;;;;;;;;5022717;28;20190;-74
2022/07/25 01:24:05;;;;;;;6.50;3.53;;;;;;;;;;5026581;28;20029;-74
2022/07/25 01:26:31;;;;;;;8.18;4.30;;;;;;;;;;5022654;28;20026;-74
2022/07/25 01:28:58;;;;;;;8.68;3.83;;;;;;;;;;5023412;28;20029;-74
2022/07/25 01:31:24;;;;;;;6.57;3.28;;;;;;;;;;5029161;28;20096;-75
2022/07/25 01:33:50;;;;;;;7.03;3.80;;;;;;;;;;5030274;28;20109;-75
2022/07/25 01:36:17;;;;;;;7.35;3.25;;;;;;;;;;5027525;28;20025;-75
2022/07/25 01:38:43;;;;;;;6.15;3.28;;;;;;;;;;5026955;28;20029;-75
2022/07/25 01:41:10;;;;;;;6.15;3.92;;;;;;;;;;5027415;28;20020;-75
2022/07/25 01:43:36;;;;;;;7.70;4.00;;;;;;;;;;5026928;28;20112;-75
2022/07/25 01:46:02;;;;;;;6.18;3.00;;;;;;;;;;5029391;28;20392;-76
2022/07/25 01:48:28;;;;;;;9.02;4.82;;;;;;;;;;5024950;28;20140;-75
2022/07/25 01:50:54;;;;;;;4.97;2.85;;;;;;;;;;5025715;28;20048;-75
2022/07/25 01:53:20;;;;;;;4.47;3.28;;;;;;;;;;5026129;28;20063;-75
2022/07/25 01:55:46;;;;;;;7.38;3.78;;;;;;;;;;5027096;28;20484;-76
2022/07/25 01:58:12;;;;;;;10.68;3.55;;;;;;;;;;5034119;28;20061;-75
2022/07/25 02:00:39;;;;;;;4.68;3.13;;;;;;;;;;5032024;28;20468;-76
2022/07/25 02:05:49;;;;;;;6.72;3.63;;;;;;;;;;5032264;28;20028;-77
2022/07/25 02:08:15;;;;;;;6.20;3.50;;;;;;;;;;5031591;28;20045;-76
2022/07/25 02:10:41;;;;;;;7.75;3.42;;;;;;;;;;5025719;28;20105;-76
2022/07/25 02:13:07;;;;;;;7.85;3.95;;;;;;;;;;5027927;28;20040;-77
2022/07/25 02:15:35;;;;;;;7.90;4.13;;;;;;;;;;5030041;28;20379;-76
2022/07/25 02:18:01;;;;;;;6.82;4.03;;;;;;;;;;5031247;28;20112;-76
2022/07/25 02:20:27;;;;;;;6.45;3.78;;;;;;;;;;5031516;28;20029;-76
2022/07/25 02:22:53;;;;;;;5.82;3.45;;;;;;;;;;5027623;28;20029;-75
2022/07/25 02:25:19;;;;;;;8.88;3.80;;;;;;;;;;5029911;28;20073;-75
2022/07/25 02:27:45;;;;;;;5.93;3.60;;;;;;;;;;5028370;28;20036;-76
2022/07/25 02:30:11;;;;;;;6.30;3.60;;;;;;;;;;5027615;28;20537;-75
2022/07/25 02:32:37;;;;;;;7.85;3.50;;;;;;;;;;5029259;28;20099;-76
2022/07/25 02:35:04;;;;;;;7.35;3.40;;;;;;;;;;5030457;28;20535;-76
2022/07/25 02:37:30;;;;;;;6.07;3.60;;;;;;;;;;5021796;28;20904;-76
2022/07/25 02:39:57;;;;;;;7.40;3.97;;;;;;;;;;5029351;28;20030;-76
2022/07/25 02:42:23;;;;;;;6.35;3.75;;;;;;;;;;5028303;28;20322;-76
2022/07/25 02:44:49;;;;;;;6.82;4.03;;;;;;;;;;5027296;28;20026;-75
2022/07/25 02:47:15;;;;;;;6.35;3.85;;;;;;;;;;5023755;28;20554;-75
2022/07/25 02:49:41;;;;;;;6.90;3.95;;;;;;;;;;5026077;28;20033;-76
2022/07/25 02:52:07;;;;;;;8.48;3.60;;;;;;;;;;5028875;28;20025;-75
2022/07/25 02:54:33;;;;;;;6.00;2.97;;;;;;;;;;5028815;28;20033;-76
2022/07/25 02:56:59;;;;;;;5.45;3.55;;;;;;;;;;5022146;28;20377;-76
2022/07/25 02:59:25;;;;;;;7.05;3.47;;;;;;;;;;5027332;28;20523;-75
2022/07/25 03:01:51;;;;;;;8.00;3.47;;;;;;;;;;5026270;28;20017;-76
2022/07/25 03:04:17;;;;;;;6.05;3.28;;;;;;;;;;5032774;28;20029;-76
2022/07/25 03:06:43;;;;;;;5.28;4.00;;;;;;;;;;5029750;28;20051;-75
2022/07/25 03:09:09;;;;;;;6.00;3.47;;;;;;;;;;5028780;28;20030;-75
2022/07/25 03:11:35;;;;;;;6.93;3.33;;;;;;;;;;5028159;28;20017;-76
2022/07/25 03:14:02;;;;;;;7.30;3.20;;;;;;;;;;5029520;28;20499;-75
2022/07/25 03:16:28;;;;;;;6.53;3.65;;;;;;;;;;5026844;28;20078;-76
2022/07/25 03:18:54;;;;;;;7.38;3.30;;;;;;;;;;5029118;28;20143;-76
2022/07/25 03:21:20;;;;;;;4.85;2.85;;;;;;;;;;5019488;28;20026;-74
2022/07/25 03:23:46;;;;;;;4.68;3.25;;;;;;;;;;5019427;28;20021;-76
2022/07/25 03:26:12;;;;;;;6.20;2.92;;;;;;;;;;5020496;28;20724;-74
2022/07/25 03:28:38;;;;;;;11.75;3.38;;;;;;;;;;5020909;28;20141;-74
2022/07/25 03:31:04;;;;;;;4.88;3.10;;;;;;;;;;5021834;28;20057;-75
2022/07/25 03:33:30;;;;;;;5.22;2.88;;;;;;;;;;5021902;28;20539;-74
2022/07/25 03:35:57;;;;;;;7.53;3.22;;;;;;;;;;5027931;28;20379;-73
2022/07/25 03:38:23;;;;;;;7.40;3.30;;;;;;;;;;5022908;28;20096;-75
2022/07/25 03:40:49;;;;;;;6.35;3.55;;;;;;;;;;5027015;28;20033;-74
2022/07/25 03:43:15;;;;;;;7.43;2.92;;;;;;;;;;5013471;28;20108;-74
2022/07/25 03:45:42;;;;;;;5.05;3.20;;;;;;;;;;5018616;28;20458;-74
2022/07/25 03:48:08;;;;;;;5.72;3.42;;;;;;;;;;5021911;28;20208;-75
2022/07/25 03:50:34;;;;;;;4.85;3.08;;;;;;;;;;5023408;28;20056;-75
2022/07/25 03:53:00;;;;;;;5.80;2.80;;;;;;;;;;5031488;28;20455;-77
2022/07/25 03:55:26;;;;;;;6.30;2.88;;;;;;;;;;5019726;28;20036;-76
2022/07/25 03:57:52;;;;;;;6.38;3.13;;;;;;;;;;5018381;28;20037;-76
2022/07/25 04:00:19;;;;;;;6.82;3.15;;;;;;;;;;5023315;28;20842;-75
2022/07/25 04:02:45;;;;;;;6.93;3.00;;;;;;;;;;5024890;28;20058;-76
2022/07/25 04:05:11;;;;;;;5.90;2.70;;;;;;;;;;5026553;28;20472;-75
2022/07/25 04:07:37;;;;;;;4.85;2.80;;;;;;;;;;5024953;28;20036;-74
2022/07/25 04:10:05;;;;;;;4.70;2.92;;;;;;;;;;5026180;28;20060;-75
2022/07/25 04:12:31;;;;;;;7.72;3.15;;;;;;;;;;5026613;28;20038;-75
2022/07/25 04:14:58;;;;;;;5.20;2.75;;;;;;;;;;5029722;28;20097;-74
2022/07/25 04:17:24;;;;;;;5.05;2.95;;;;;;;;;;5024217;28;20034;-75
2022/07/25 04:19:50;;;;;;;7.47;2.90;;;;;;;;;;5025322;28;20016;-75
2022/07/25 04:22:16;;;;;;;5.50;3.05;;;;;;;;;;5025446;28;20018;-75
2022/07/25 04:24:43;;;;;;;7.30;2.92;;;;;;;;;;5023822;28;20471;-76
2022/07/25 04:27:09;;;;;;;7.93;3.20;;;;;;;;;;5026005;28;20029;-75
2022/07/25 04:29:35;;;;;;;8.63;3.20;;;;;;;;;;5026556;28;20368;-75
2022/07/25 04:32:01;;;;;;;6.38;3.38;;;;;;;;;;5026915;28;20509;-75
2022/07/25 04:34:28;;;;;;;5.97;3.22;;;;;;;;;;5030823;28;20068;-75
2022/07/25 04:36:54;;;;;;;5.63;3.42;;;;;;;;;;5028640;28;20075;-74
2022/07/25 04:39:20;;;;;;;5.53;3.20;;;;;;;;;;5027474;28;20083;-76
2022/07/25 04:41:46;;;;;;;6.72;3.17;;;;;;;;;;5028692;28;20029;-75
2022/07/25 04:44:12;;;;;;;6.07;3.17;;;;;;;;;;5030878;28;20096;-75
2022/07/25 04:46:39;;;;;;;5.85;2.47;;;;;;;;;;5027744;28;20435;-75
2022/07/25 04:49:06;;;;;;;5.82;3.15;;;;;;;;;;5030917;28;20387;-75
2022/07/25 04:51:32;;;;;;;6.45;2.88;;;;;;;;;;5029353;28;20440;-76
2022/07/25 04:53:58;;;;;;;3.03;2.55;;;;;;;;;;5030437;28;20279;-75
2022/07/25 04:56:24;;;;;;;5.20;2.55;;;;;;;;;;5026091;28;20037;-75
2022/07/25 04:58:50;;;;;;;7.35;2.88;;;;;;;;;;5023167;28;20056;-75
2022/07/25 05:01:18;;;;;;;5.20;3.22;;;;;;;;;;5031819;28;20045;-74
2022/07/25 05:03:44;;;;;;;4.07;2.58;;;;;;;;;;5030891;28;20026;-75
2022/07/25 05:06:10;;;;;;;4.85;2.70;;;;;;;;;;5031039;28;20037;-75
2022/07/25 05:08:36;;;;;;;6.80;2.70;;;;;;;;;;5026499;28;20032;-75
2022/07/25 05:11:02;;;;;;;6.10;3.83;;;;;;;;;;5029371;28;20107;-76
2022/07/25 05:13:28;;;;;;;4.18;2.33;;;;;;;;;;5029442;28;20017;-75
2022/07/25 05:15:55;;;;;;;7.07;2.97;;;;;;;;;;5033254;28;20510;-75
2022/07/25 05:18:21;;;;;;;4.78;2.58;;;;;;;;;;5034199;28;20029;-75
2022/07/25 05:20:47;;;;;;;5.32;3.42;;;;;;;;;;5033792;28;20383;-75
2022/07/25 05:23:16;;;;;;;9.45;2.90;;;;;;;;;;5028424;28;20013;-75
2022/07/25 05:25:42;;;;;;;3.45;2.25;;;;;;;;;;5030747;28;20022;-75
2022/07/25 05:28:08;;;;;;;3.63;2.30;;;;;;;;;;5025618;28;20033;-76
2022/07/25 05:30:34;;;;;;;3.65;2.17;;;;;;;;;;5033429;28;20488;-74
2022/07/25 05:33:01;;;;;;;3.08;2.10;;;;;;;;;;5035048;28;20093;-76
2022/07/25 05:35:27;;;;;;;2.78;2.05;;;;;;;;;;5029162;28;20029;-74
2022/07/25 05:37:53;;;;;;;4.05;2.38;;;;;;;;;;5029945;28;20025;-75
2022/07/25 05:40:19;;;;;;;2.70;2.30;;;;;;;;;;5034989;28;20096;-74
2022/07/25 05:42:45;;;;;;;2.58;2.05;;;;;;;;;;5031497;28;20937;-75
2022/07/25 05:45:11;;;;;;;2.97;1.77;;;;;;;;;;5025967;28;20090;-74
2022/07/25 05:47:37;;;;;;;2.28;1.80;;;;;;;;;;5029402;28;20483;-76
2022/07/25 05:50:03;;;;;;;4.05;1.60;;;;;;;;;;5021161;28;20029;-75
2022/07/25 05:52:30;;;;;;;2.53;1.60;;;;;;;;;;5029407;28;20492;-75
2022/07/25 05:54:56;;;;;;;2.47;1.83;;;;;;;;;;5027425;28;20108;-74
2022/07/25 05:57:22;;;;;;;2.83;1.73;;;;;;;;;;5024030;28;20234;-75
2022/07/25 05:59:48;;;;;;;1.58;1.48;;;;;;;;;;5032514;28;20479;-75
2022/07/25 06:02:15;;;;;;;2.65;1.50;;;;;;;;;;5031788;28;20033;-72
2022/07/25 06:04:42;;;;;;;2.95;1.58;;;;;;;;;;5031551;28;20115;-73
2022/07/25 06:07:08;;;;;;;5.72;1.75;;;;;;;;;;5031483;28;20037;-74
2022/07/25 06:09:34;;;;;;;2.28;1.80;;;;;;;;;;5026633;28;20129;-73
2022/07/25 06:12:00;;;;;;;2.55;1.60;;;;;;;;;;5025304;28;20391;-75
2022/07/25 06:14:27;;;;;;;2.80;2.00;;;;;;;;;;5030574;28;20079;-73
2022/07/25 06:16:53;;;;;;;4.32;1.67;;;;;;;;;;5032743;28;20060;-75
2022/07/25 06:19:19;;;;;;;3.97;2.30;;;;;;;;;;5030240;28;20026;-73
2022/07/25 06:21:45;;;;;;;1.77;1.50;;;;;;;;;;5026974;28;20046;-74
2022/07/25 06:24:11;;;;;;;2.67;1.65;;;;;;;;;;5027571;28;20044;-75
2022/07/25 06:26:38;;;;;;;3.00;1.77;;;;;;;;;;5029987;28;20036;-75
2022/07/25 06:29:04;;;;;;;2.53;1.67;;;;;;;;;;5033735;28;20025;-75
2022/07/25 06:31:30;;;;;;;2.05;1.67;;;;;;;;;;5026275;28;20049;-74
2022/07/25 06:33:56;;;;;;;2.67;1.60;;;;;;;;;;5031307;28;20029;-73
2022/07/25 06:36:22;;;;;;;2.58;1.60;;;;;;;;;;5024014;28;20030;-74
2022/07/25 06:38:49;;;;;;;1.40;1.30;;;;;;;;;;5025687;28;20091;-75
2022/07/25 06:41:16;;;;;;;1.50;1.40;;;;;;;;;;5028469;28;20143;-75
2022/07/25 06:43:42;;;;;;;1.98;1.60;;;;;;;;;;5027774;28;20043;-74
2022/07/25 06:46:08;;;;;;;1.50;1.40;;;;;;;;;;5031612;28;20029;-75
2022/07/25 06:48:34;;;;;;;3.97;1.67;;;;;;;;;;5029573;28;20163;-74
2022/07/25 06:51:01;;;;;;;3.53;1.20;;;;;;;;;;5030003;28;20029;-72
2022/07/25 06:53:27;;;;;;;2.30;1.30;;;;;;;;;;5022583;28;20925;-75
2022/07/25 06:55:53;;;;;;;3.20;1.40;;;;;;;;;;5024223;28;20503;-74
2022/07/25 06:58:19;;;;;;;1.77;1.23;;;;;;;;;;5025569;28;20091;-75
2022/07/25 07:00:46;;;;;;;1.42;1.33;;;;;;;;;;5030168;28;20052;-75
2022/07/25 07:03:12;;;;;;;2.45;1.40;;;;;;;;;;5029209;28;20033;-74
2022/07/25 07:05:40;;;;;;;3.05;1.70;;;;;;;;;;5032439;28;20025;-74
2022/07/25 07:08:06;;;;;;;3.05;1.50;;;;;;;;;;5030569;28;20117;-75
2022/07/25 07:10:32;;;;;;;2.47;1.48;;;;;;;;;;5027488;28;20040;-75
2022/07/25 07:13:05;;;;;;;1.38;1.10;;;;;;;;;;5027774;28;20076;-75
2022/07/25 07:15:31;;;;;;;1.05;1.05;;;;;;;;;;5027709;28;20033;-74
2022/07/25 07:17:57;;;;;;;3.00;1.38;;;;;;;;;;5027634;28;20453;-74
2022/07/25 07:20:23;;;;;;;0.98;0.98;;;;;;;;;;5029368;28;20018;-73
2022/07/25 07:22:49;;;;;;;4.03;1.50;;;;;;;;;;5028288;28;20036;-75
2022/07/25 07:25:17;;;;;;;3.00;1.48;;;;;;;;;;5027708;28;20033;-75
2022/07/25 07:27:43;;;;;;;1.30;1.20;;;;;;;;;;5024519;28;20106;-75
2022/07/25 07:30:10;;;;;;;1.60;1.30;;;;;;;;;;5025266;28;20040;-75
2022/07/25 07:32:36;;;;;;;1.83;1.35;;;;;;;;;;5023326;28;20550;-74
2022/07/25 07:35:03;;;;;;;1.50;1.40;;;;;;;;;;5028467;28;20388;-74
2022/07/25 07:37:29;;;;;;;1.80;1.40;;;;;;;;;;5029553;28;20079;-75
2022/07/25 07:39:56;;;;;;;1.25;1.17;;;;;;;;;;5025176;28;20045;-75
2022/07/25 07:42:22;;;;;;;1.30;1.20;;;;;;;;;;5028106;28;20036;-75
2022/07/25 07:44:49;;;;;;;1.63;1.38;;;;;;;;;;5028049;28;20029;-74
2022/07/25 07:47:15;;;;;;;1.88;1.30;;;;;;;;;;5029208;28;20064;-74
2022/07/25 07:49:41;;;;;;;1.88;1.30;;;;;;;;;;5028877;28;20049;-74
2022/07/25 07:52:07;;;;;;;1.83;1.42;;;;;;;;;;5026406;28;20045;-75
2022/07/25 07:57:18;;;;;;;1.27;1.17;;;;;;;;;;5027678;28;20327;-74
2022/07/25 07:59:44;;;;;;;1.63;1.30;;;;;;;;;;5031372;28;20030;-74
2022/07/25 08:02:11;;;;;;;2.00;1.40;;;;;;;;;;5024892;28;20028;-75
2022/07/25 08:04:37;;;;;;;3.10;1.27;;;;;;;;;;5027775;28;20490;-75
2022/07/25 08:07:03;;;;;;;1.42;1.30;;;;;;;;;;5028001;28;20399;-74
2022/07/25 08:09:29;;;;;;;1.27;1.20;;;;;;;;;;5023118;28;20025;-74
2022/07/25 08:11:55;;;;;;;1.77;1.30;;;;;;;;;;5023812;28;20045;-73
2022/07/25 08:14:21;;;;;;;4.65;1.73;;;;;;;;;;5026096;28;20018;-74
2022/07/25 08:16:47;;;;;;;1.85;1.50;;;;;;;;;;5028597;28;20060;-74
2022/07/25 08:19:13;;;;;;;2.88;1.50;;;;;;;;;;5029560;28;20152;-75
2022/07/25 08:21:39;;;;;;;3.22;1.65;;;;;;;;;;5029264;28;20065;-74
2022/07/25 08:24:06;;;;;;;2.72;1.42;;;;;;;;;;5030130;28;20045;-74
2022/07/25 08:26:32;;;;;;;1.55;1.38;;;;;;;;;;5028923;28;20041;-74
2022/07/25 08:28:59;;;;;;;1.92;1.40;;;;;;;;;;5019794;28;20026;-75
2022/07/25 08:31:26;;;;;;;2.90;1.70;;;;;;;;;;5023786;28;20080;-74
2022/07/25 08:33:52;;;;;;;1.30;1.20;;;;;;;;;;5027781;28;20114;-75
2022/07/25 08:36:19;;;;;;;1.63;1.30;;;;;;;;;;5027023;28;20108;-76
2022/07/25 08:38:45;;;;;;;2.05;1.60;;;;;;;;;;5027739;28;20025;-74
2022/07/25 08:41:11;;;;;;;1.35;1.05;;;;;;;;;;5023879;28;20032;-74
2022/07/25 08:43:38;;;;;;;1.38;1.10;;;;;;;;;;5026958;28;20052;-74
2022/07/25 08:46:05;;;;;;;1.08;0.98;;;;;;;;;;5024567;28;20418;-74
2022/07/25 08:48:31;;;;;;;1.25;1.08;;;;;;;;;;5032597;28;20030;-75
2022/07/25 08:50:59;;;;;;;1.30;1.20;;;;;;;;;;5027586;28;20025;-74
2022/07/25 08:53:26;;;;;;;2.47;1.30;;;;;;;;;;5025146;28;20065;-73
2022/07/25 08:55:52;;;;;;;2.65;1.17;;;;;;;;;;5027284;28;20021;-74
2022/07/25 08:58:18;;;;;;;1.52;1.20;;;;;;;;;;5026864;28;20026;-75
2022/07/25 09:00:45;;;;;;;1.10;1.10;;;;;;;;;;5029931;28;20095;-74
2022/07/25 09:03:12;;;;;;;1.45;1.35;;;;;;;;;;5026970;28;20580;-74
2022/07/25 09:05:38;;;;;;;1.73;1.63;;;;;;;;;;5031017;28;20033;-73
2022/07/25 09:08:09;;;;;;;2.90;1.30;;;;;;;;;;5024447;28;20083;-74
2022/07/25 09:10:35;;;;;;;1.40;1.30;;;;;;;;;;5024073;28;20034;-74
2022/07/25 09:13:01;;;;;;;1.95;1.50;;;;;;;;;;5027604;28;20017;-75
2022/07/25 09:15:30;;;;;;;2.45;1.58;;;;;;;;;;5026900;28;20032;-74
2022/07/25 09:18:01;;;;;;;1.33;1.25;;;;;;;;;;5027095;28;20025;-73
2022/07/25 09:20:41;;;;;;;1.92;1.77;;;;;;;;;;5026234;28;20364;-75
2022/07/25 09:23:08;;;;;;;1.50;1.40;;;;;;;;;;5032666;28;20101;-75
2022/07/25 09:25:34;;;;;;;2.38;1.85;;;;;;;;;;5030589;28;20067;-74
2022/07/25 09:28:17;;;;;;;1.70;1.60;;;;;;;;;;5031212;28;20064;-74
2022/07/25 09:30:53;;;;;;;3.55;1.80;;;;;;;;;;5024887;28;20125;-75
2022/07/25 09:33:20;;;;;;;1.60;1.50;;;;;;;;;;5024081;28;20030;-75
2022/07/25 09:35:46;;;;;;;2.03;1.50;;;;;;;;;;5027779;28;20029;-75
2022/07/25 09:38:14;;;;;;;3.03;1.60;;;;;;;;;;5029655;28;20029;-75
2022/07/25 09:40:40;;;;;;;1.98;1.55;;;;;;;;;;5030675;28;20104;-75
2022/07/25 09:43:06;;;;;;;1.63;1.52;;;;;;;;;;5027383;28;20022;-75
2022/07/25 09:45:32;;;;;;;3.08;1.70;;;;;;;;;;5024440;28;20021;-74
2022/07/25 09:48:04;;;;;;;4.05;2.00;;;;;;;;;;5029469;28;20045;-76
2022/07/25 09:50:31;;;;;;;1.77;1.67;;;;;;;;;;5024370;28;20120;-76
2022/07/25 09:52:59;;;;;;;3.90;2.20;;;;;;;;;;5027597;28;20040;-74
2022/07/25 09:55:26;;;;;;;2.47;2.00;;;;;;;;;;5030775;28;20036;-75
2022/07/25 09:57:52;;;;;;;2.80;1.80;;;;;;;;;;5029449;28;20057;-75
2022/07/25 10:00:24;;;;;;;2.22;1.73;;;;;;;;;;5031998;28;20036;-75
2022/07/25 10:02:57;;;;;;;3.28;2.20;;;;;;;;;;5023164;28;20029;-74
2022/07/25 10:05:30;;;;;;;1.80;1.70;;;;;;;;;;5028311;28;20475;-73
2022/07/25 10:07:56;;;;;;;3.63;1.60;;;;;;;;;;5029569;28;20067;-75
2022/07/25 10:10:31;;;;;;;2.10;1.50;;;;;;;;;;5026558;28;20029;-74
2022/07/25 10:13:01;;;;;;;3.42;1.73;;;;;;;;;;5028758;28;20032;-73
2022/07/25 10:15:39;;;;;;;3.08;1.60;;;;;;;;;;5029237;28;20060;-74
2022/07/25 10:18:07;;;;;;;2.13;1.50;;;;;;;;;;5027517;28;20276;-75
2022/07/25 10:20:33;;;;;;;3.53;1.60;;;;;;;;;;5027904;28;20049;-74
2022/07/25 10:23:00;;;;;;;2.25;1.40;;;;;;;;;;5027094;28;20018;-74
2022/07/25 10:25:26;;;;;;;1.60;1.50;;;;;;;;;;5029070;28;20060;-74
2022/07/25 10:27:59;;;;;;;1.50;1.40;;;;;;;;;;5030913;28;20452;-74
2022/07/25 10:30:34;;;;;;;1.60;1.50;;;;;;;;;;5030239;28;20544;-74
2022/07/25 10:33:02;;;;;;;1.15;1.10;;;;;;;;;;5027422;28;20522;-74
2022/07/25 10:35:28;;;;;;;1.60;1.50;;;;;;;;;;5028623;28;20488;-74
2022/07/25 10:37:55;;;;;;;1.83;1.40;;;;;;;;;;5034751;28;20025;-74
2022/07/25 10:40:29;;;;;;;2.58;1.33;;;;;;;;;;5030314;28;20046;-74
2022/07/25 10:43:08;;;;;;;1.52;1.30;;;;;;;;;;5037324;28;20085;-75
2022/07/25 10:46:04;;;;;;;3.05;1.60;;;;;;;;;;5033170;28;20087;-74
2022/07/25 10:48:31;;;;;;;2.88;1.38;;;;;;;;;;5031600;28;20397;-74
2022/07/25 10:51:05;;;;;;;1.58;1.45;;;;;;;;;;5039793;28;20052;-75
2022/07/25 10:53:37;;;;;;;1.50;1.40;;;;;;;;;;5031100;28;20087;-75
2022/07/25 10:56:07;;;;;;;1.50;1.40;;;;;;;;;;5033666;28;20013;-73
2022/07/25 10:58:52;;;;;;;1.80;1.33;;;;;;;;;;5033276;28;20022;-74
2022/07/25 11:01:23;;;;;;;1.80;1.40;;;;;;;;;;5029482;28;20380;-75
2022/07/25 11:03:50;;;;;;;1.55;1.45;;;;;;;;;;5033148;28;20026;-75
2022/07/25 11:06:17;;;;;;;2.97;1.20;;;;;;;;;;5031980;28;20108;-75
2022/07/25 11:08:44;;;;;;;1.92;1.50;;;;;;;;;;5028800;28;20021;-73
2022/07/25 11:11:11;;;;;;;1.90;1.40;;;;;;;;;;5027683;28;20108;-74
2022/07/25 11:13:40;;;;;;;4.32;1.90;;;;;;;;;;5030228;28;20494;-74
2022/07/25 11:16:07;;;;;;;1.30;1.23;;;;;;;;;;5032215;28;20022;-74
2022/07/25 11:18:38;;;;;;;2.55;1.35;;;;;;;;;;5032620;28;20075;-74
2022/07/25 11:21:05;;;;;;;1.60;1.50;;;;;;;;;;5035363;28;20025;-73
2022/07/25 11:23:32;;;;;;;1.50;1.40;;;;;;;;;;5032424;28;20021;-76
2022/07/25 11:26:11;;;;;;;2.30;1.27;;;;;;;;;;5029998;28;20025;-73
2022/07/25 11:28:42;;;;;;;1.20;1.10;;;;;;;;;;5027673;28;20021;-74
2022/07/25 11:31:08;;;;;;;1.38;1.10;;;;;;;;;;5028657;28;20072;-73
2022/07/25 11:33:34;;;;;;;2.40;1.40;;;;;;;;;;5022742;28;20509;-76
2022/07/25 11:36:01;;;;;;;4.85;2.17;;;;;;;;;;5029092;28;20048;-74
2022/07/25 11:38:27;;;;;;;4.18;2.42;;;;;;;;;;5027726;28;20021;-74
2022/07/25 11:40:53;;;;;;;1.92;1.73;;;;;;;;;;5027154;28;20025;-75
2022/07/25 11:43:23;;;;;;;1.75;1.55;;;;;;;;;;5028639;28;20476;-74
2022/07/25 11:46:00;;;;;;;2.72;1.67;;;;;;;;;;5029907;28;20021;-74
2022/07/25 11:48:33;;;;;;;1.90;1.70;;;;;;;;;;5028848;28;20450;-74
2022/07/25 11:51:08;;;;;;;2.22;1.90;;;;;;;;;;5019076;28;20119;-74
2022/07/25 11:53:39;;;;;;;1.95;1.60;;;;;;;;;;5024313;28;20025;-75
2022/07/25 11:56:12;;;;;;;1.63;1.45;;;;;;;;;;5028327;28;20570;-74
2022/07/25 11:58:38;;;;;;;2.58;1.75;;;;;;;;;;5028500;28;20087;-74
2022/07/25 12:01:12;;;;;;;2.13;1.70;;;;;;;;;;5028234;28;20384;-74
2022/07/25 12:03:40;;;;;;;2.83;1.60;;;;;;;;;;5028928;28;20022;-72
2022/07/25 12:06:10;;;;;;;5.75;3.13;;;;;;;;;;5032937;28;20080;-74
2022/07/25 12:08:38;;;;;;;4.75;2.60;;;;;;;;;;5031598;28;20037;-77
2022/07/25 12:11:04;;;;;;;3.08;1.80;;;;;;;;;;5030340;28;20085;-74
2022/07/25 12:13:30;;;;;;;2.67;1.80;;;;;;;;;;5030645;28;20021;-72
2022/07/25 12:15:59;;;;;;;5.68;1.92;;;;;;;;;;5027405;28;20152;-74
2022/07/25 12:18:26;;;;;;;5.88;2.20;;;;;;;;;;5029040;28;20053;-74
2022/07/25 12:20:52;;;;;;;7.82;2.40;;;;;;;;;;5027587;28;20380;-76
2022/07/25 12:23:20;;;;;;;2.47;1.92;;;;;;;;;;5028309;28;20117;-74
2022/07/25 12:25:46;;;;;;;1.80;1.60;;;;;;;;;;5026926;28;20025;-75
2022/07/25 12:28:13;;;;;;;2.28;1.83;;;;;;;;;;5027655;28;20101;-75
2022/07/25 12:30:40;;;;;;;3.72;1.60;;;;;;;;;;5028276;28;20057;-74
2022/07/25 12:33:06;;;;;;;3.85;1.85;;;;;;;;;;5026504;28;20061;-74
2022/07/25 12:35:32;;;;;;;2.95;1.50;;;;;;;;;;5027518;28;20080;-74
2022/07/25 12:37:59;;;;;;;5.07;1.85;;;;;;;;;;5027195;28;20052;-74
2022/07/25 12:40:25;;;;;;;2.38;1.38;;;;;;;;;;5027793;28;20045;-74
2022/07/25 12:42:51;;;;;;;3.28;1.48;;;;;;;;;;5027801;28;20021;-75
2022/07/25 12:45:17;;;;;;;3.08;1.55;;;;;;;;;;5027135;28;20519;-75
2022/07/25 12:47:44;;;;;;;2.83;1.50;;;;;;;;;;5028285;28;20104;-75
2022/07/25 12:50:10;;;;;;;1.40;1.30;;;;;;;;;;5023765;28;20156;-75
2022/07/25 12:52:37;;;;;;;29.23;2.38;;;;;;;;;;5028230;28;20199;-72
2022/07/25 12:55:03;;;;;;;3.22;1.70;;;;;;;;;;5027116;28;20028;-74
2022/07/25 12:57:29;;;;;;;4.53;2.00;;;;;;;;;;5032399;28;20075;-75
2022/07/25 12:59:56;;;;;;;4.32;1.73;;;;;;;;;;5030932;28;20034;-75
2022/07/25 13:02:22;;;;;;;4.35;1.77;;;;;;;;;;5028035;28;20100;-74
2022/07/25 13:04:48;;;;;;;2.97;2.00;;;;;;;;;;5027223;28;20021;-75
2022/07/25 13:07:15;;;;;;;2.50;1.85;;;;;;;;;;5032032;28;20044;-74
2022/07/25 13:09:41;;;;;;;3.53;1.92;;;;;;;;;;5028293;28;20027;-75
2022/07/25 13:12:08;;;;;;;2.08;1.60;;;;;;;;;;5031943;28;20033;-74
2022/07/25 13:14:34;;;;;;;4.60;1.80;;;;;;;;;;5028576;28;20036;-75
2022/07/25 13:17:00;;;;;;;3.47;1.65;;;;;;;;;;5031125;28;20426;-74
2022/07/25 13:19:27;;;;;;;3.45;2.00;;;;;;;;;;5030318;28;20076;-77
2022/07/25 13:21:53;;;;;;;2.13;1.65;;;;;;;;;;5031764;28;20036;-76
2022/07/25 13:24:19;;;;;;;2.47;1.50;;;;;;;;;;5029686;28;20483;-77
2022/07/25 13:26:45;;;;;;;10.77;2.63;;;;;;;;;;5026443;28;20021;-74
2022/07/25 13:29:11;;;;;;;1.70;1.60;;;;;;;;;;5026392;28;20076;-75
2022/07/25 13:31:38;;;;;;;1.95;1.60;;;;;;;;;;5028567;28;20077;-74
2022/07/25 13:34:05;;;;;;;2.30;1.70;;;;;;;;;;5021149;28;20102;-75
2022/07/25 13:36:32;;;;;;;2.47;2.13;;;;;;;;;;5028727;28;20105;-74
2022/07/25 13:38:58;;;;;;;2.22;1.30;;;;;;;;;;5025991;28;20480;-75
2022/07/25 13:41:24;;;;;;;4.28;1.60;;;;;;;;;;5028360;28;20017;-74
2022/07/25 13:43:50;;;;;;;2.42;2.00;;;;;;;;;;5030632;28;20076;-75
2022/07/25 13:46:17;;;;;;;4.03;1.63;;;;;;;;;;5025237;28;20511;-74
2022/07/25 13:48:43;;;;;;;3.30;2.30;;;;;;;;;;5021024;28;20030;-74
2022/07/25 13:51:09;;;;;;;3.47;2.65;;;;;;;;;;5028672;28;20079;-75
2022/07/25 13:53:35;;;;;;;3.47;2.03;;;;;;;;;;5030860;28;20032;-74
2022/07/25 13:56:01;;;;;;;2.20;1.70;;;;;;;;;;5028204;28;20057;-74
2022/07/25 13:58:28;;;;;;;1.88;1.73;;;;;;;;;;5029560;28;20037;-75
2022/07/25 14:00:54;;;;;;;1.73;1.60;;;;;;;;;;5028165;28;20103;-77
2022/07/25 14:03:21;;;;;;;1.75;1.50;;;;;;;;;;5031196;28;20415;-74
2022/07/25 14:05:47;;;;;;;2.10;1.60;;;;;;;;;;5030777;28;20029;-75
2022/07/25 14:08:13;;;;;;;2.25;1.50;;;;;;;;;;5025956;28;20029;-75
2022/07/25 14:10:40;;;;;;;1.63;1.50;;;;;;;;;;5029895;28;20022;-75
2022/07/25 14:13:06;;;;;;;2.15;1.30;;;;;;;;;;5022189;28;20061;-76
2022/07/25 14:15:32;;;;;;;3.10;1.70;;;;;;;;;;5022963;28;20025;-76
2022/07/25 14:17:58;;;;;;;2.45;1.40;;;;;;;;;;5020489;28;20037;-79
2022/07/25 14:20:24;;;;;;;1.75;1.48;;;;;;;;;;5025479;28;20503;-75
2022/07/25 14:22:50;;;;;;;2.42;1.63;;;;;;;;;;5023153;28;20029;-75
2022/07/25 14:25:16;;;;;;;3.08;1.70;;;;;;;;;;5020096;28;20033;-76
2022/07/25 14:27:43;;;;;;;5.57;1.70;;;;;;;;;;5022767;28;20037;-75
2022/07/25 14:30:10;;;;;;;1.50;1.40;;;;;;;;;;5020349;28;20033;-76
2022/07/25 14:32:36;;;;;;;4.65;1.80;;;;;;;;;;5025622;28;20346;-77
2022/07/25 14:35:04;;;;;;;2.85;1.63;;;;;;;;;;5027061;28;20037;-75
2022/07/25 14:37:30;;;;;;;2.70;1.88;;;;;;;;;;5019372;28;20120;-75
2022/07/25 14:40:01;;;;;;;4.22;1.70;;;;;;;;;;5023176;28;20060;-75
2022/07/25 14:42:27;;;;;;;1.90;1.70;;;;;;;;;;5020733;28;20025;-74
2022/07/25 14:44:53;;;;;;;2.25;1.70;;;;;;;;;;5019684;28;20519;-75
2022/07/25 14:47:22;;;;;;;2.95;1.50;;;;;;;;;;5021027;28;20061;-74